sensor_id;sensor_type;location;lat;lon;timestamp;pressure;altitude;pressure_sealevel;temperature;humidity
64521;BME280;50896;46.714;17.322;2023-09-30T00:00:10;100985.38;;;12.76;100.00
64521;BME280;50896;46.714;17.322;2023-09-30T00:02:38;100991.25;;;12.80;100.00
64521;BME280;50896;46.714;17.322;2023-09-30T00:05:06;100983.69;;;12.75;100.00
64521;BME280;50896;46.714;17.322;2023-09-30T00:07:33;100987.56;;;12.81;100.00
64521;BME280;50896;46.714;17.322;2023-09-30T00:10:00;100982.06;;;12.82;100.00
64521;BME280;50896;46.714;17.322;2023-09-30T00:12:27;100980.56;;;12.80;100.00
64521;BME280;50896;46.714;17.322;2023-09-30T00:14:54;100976.88;;;12.73;100.00
64521;BME280;50896;46.714;17.322;2023-09-30T00:17:21;100972.88;;;12.69;100.00
64521;BME280;50896;46.714;17.322;2023-09-30T00:19:48;100973.00;;;12.59;100.00
64521;BME280;50896;46.714;17.322;2023-09-30T00:22:15;100968.00;;;12.64;100.00
64521;BME280;50896;46.714;17.322;2023-09-30T00:24:42;100971.97;;;12.60;100.00
64521;BME280;50896;46.714;17.322;2023-09-30T00:27:09;100970.13;;;12.52;100.00
64521;BME280;50896;46.714;17.322;2023-09-30T00:29:36;100963.47;;;12.48;100.00
64521;BME280;50896;46.714;17.322;2023-09-30T00:32:03;100966.94;;;12.48;100.00
64521;BME280;50896;46.714;17.322;2023-09-30T00:34:36;100959.97;;;12.47;100.00
64521;BME280;50896;46.714;17.322;2023-09-30T00:37:04;100960.09;;;12.46;100.00
64521;BME280;50896;46.714;17.322;2023-09-30T00:39:32;100965.44;;;12.46;100.00
64521;BME280;50896;46.714;17.322;2023-09-30T00:41:59;100954.28;;;12.42;100.00
64521;BME280;50896;46.714;17.322;2023-09-30T00:44:27;100954.44;;;12.41;100.00
64521;BME280;50896;46.714;17.322;2023-09-30T00:46:54;100955.94;;;12.43;100.00
64521;BME280;50896;46.714;17.322;2023-09-30T00:49:23;100951.13;;;12.47;100.00
64521;BME280;50896;46.714;17.322;2023-09-30T00:51:51;100952.97;;;12.46;100.00
64521;BME280;50896;46.714;17.322;2023-09-30T00:54:20;100952.75;;;12.40;100.00
64521;BME280;50896;46.714;17.322;2023-09-30T00:56:50;100960.88;;;12.30;100.00
64521;BME280;50896;46.714;17.322;2023-09-30T00:59:17;100963.69;;;12.20;100.00
64521;BME280;50896;46.714;17.322;2023-09-30T01:01:45;100973.81;;;12.17;100.00
64521;BME280;50896;46.714;17.322;2023-09-30T01:04:14;100970.97;;;12.10;100.00
64521;BME280;50896;46.714;17.322;2023-09-30T01:06:42;100977.94;;;12.11;100.00
64521;BME280;50896;46.714;17.322;2023-09-30T01:09:09;100971.31;;;12.15;100.00
64521;BME280;50896;46.714;17.322;2023-09-30T01:11:36;100975.16;;;12.21;100.00
64521;BME280;50896;46.714;17.322;2023-09-30T01:14:03;100979.38;;;12.31;100.00
64521;BME280;50896;46.714;17.322;2023-09-30T01:16:30;100972.09;;;12.42;100.00
64521;BME280;50896;46.714;17.322;2023-09-30T01:18:57;100970.09;;;12.44;100.00
64521;BME280;50896;46.714;17.322;2023-09-30T01:21:24;100970.63;;;12.47;100.00
64521;BME280;50896;46.714;17.322;2023-09-30T01:23:54;100961.94;;;12.45;100.00
64521;BME280;50896;46.714;17.322;2023-09-30T01:26:22;100968.59;;;12.41;100.00
64521;BME280;50896;46.714;17.322;2023-09-30T01:28:49;100959.78;;;12.41;100.00
64521;BME280;50896;46.714;17.322;2023-09-30T01:31:16;100963.59;;;12.38;100.00
64521;BME280;50896;46.714;17.322;2023-09-30T01:33:43;100956.38;;;12.30;100.00
64521;BME280;50896;46.714;17.322;2023-09-30T01:36:10;100956.22;;;12.24;100.00
64521;BME280;50896;46.714;17.322;2023-09-30T01:38:38;100951.00;;;12.14;100.00
64521;BME280;50896;46.714;17.322;2023-09-30T01:41:05;100952.94;;;12.04;100.00
64521;BME280;50896;46.714;17.322;2023-09-30T01:43:34;100952.09;;;12.03;100.00
64521;BME280;50896;46.714;17.322;2023-09-30T01:46:03;100947.38;;;11.97;100.00
64521;BME280;50896;46.714;17.322;2023-09-30T01:48:32;100953.75;;;11.96;100.00
64521;BME280;50896;46.714;17.322;2023-09-30T01:50:59;100949.22;;;11.96;100.00
64521;BME280;50896;46.714;17.322;2023-09-30T01:53:26;100942.91;;;11.98;100.00
64521;BME280;50896;46.714;17.322;2023-09-30T01:55:53;100951.75;;;11.98;100.00
64521;BME280;50896;46.714;17.322;2023-09-30T01:58:20;100948.56;;;11.94;100.00
64521;BME280;50896;46.714;17.322;2023-09-30T02:00:47;100947.09;;;12.00;100.00
64521;BME280;50896;46.714;17.322;2023-09-30T02:03:14;100952.19;;;11.93;100.00
64521;BME280;50896;46.714;17.322;2023-09-30T02:05:41;100952.06;;;11.95;100.00
64521;BME280;50896;46.714;17.322;2023-09-30T02:08:08;100950.75;;;11.99;100.00
64521;BME280;50896;46.714;17.322;2023-09-30T02:10:35;100947.47;;;11.87;100.00
64521;BME280;50896;46.714;17.322;2023-09-30T02:13:02;100953.75;;;11.78;100.00
64521;BME280;50896;46.714;17.322;2023-09-30T02:15:33;100950.06;;;11.71;100.00
64521;BME280;50896;46.714;17.322;2023-09-30T02:18:00;100952.09;;;11.77;100.00
64521;BME280;50896;46.714;17.322;2023-09-30T02:20:27;100949.09;;;11.80;100.00
64521;BME280;50896;46.714;17.322;2023-09-30T02:22:57;100948.28;;;11.79;100.00
64521;BME280;50896;46.714;17.322;2023-09-30T02:25:25;100949.25;;;11.78;100.00
64521;BME280;50896;46.714;17.322;2023-09-30T02:27:52;100945.06;;;11.76;100.00
64521;BME280;50896;46.714;17.322;2023-09-30T02:30:19;100945.56;;;11.71;100.00
64521;BME280;50896;46.714;17.322;2023-09-30T02:32:47;100936.16;;;11.59;100.00
64521;BME280;50896;46.714;17.322;2023-09-30T02:35:14;100939.75;;;11.50;100.00
64521;BME280;50896;46.714;17.322;2023-09-30T02:37:42;100952.06;;;11.51;100.00
64521;BME280;50896;46.714;17.322;2023-09-30T02:40:10;100946.25;;;11.55;100.00
64521;BME280;50896;46.714;17.322;2023-09-30T02:42:38;100946.97;;;11.57;100.00
64521;BME280;50896;46.714;17.322;2023-09-30T02:45:07;100954.13;;;11.57;100.00
64521;BME280;50896;46.714;17.322;2023-09-30T02:47:36;100954.88;;;11.49;100.00
64521;BME280;50896;46.714;17.322;2023-09-30T02:50:08;100961.91;;;11.50;100.00
64521;BME280;50896;46.714;17.322;2023-09-30T02:52:35;100963.41;;;11.53;100.00
64521;BME280;50896;46.714;17.322;2023-09-30T02:55:03;100956.72;;;11.49;100.00
64521;BME280;50896;46.714;17.322;2023-09-30T02:57:30;100958.69;;;11.46;100.00
64521;BME280;50896;46.714;17.322;2023-09-30T02:59:58;100959.16;;;11.42;100.00
64521;BME280;50896;46.714;17.322;2023-09-30T03:02:28;100961.13;;;11.40;100.00
64521;BME280;50896;46.714;17.322;2023-09-30T03:04:55;100961.91;;;11.32;100.00
64521;BME280;50896;46.714;17.322;2023-09-30T03:07:25;100961.69;;;11.25;100.00
64521;BME280;50896;46.714;17.322;2023-09-30T03:09:52;100962.81;;;11.23;100.00
64521;BME280;50896;46.714;17.322;2023-09-30T03:12:20;100960.88;;;11.25;100.00
64521;BME280;50896;46.714;17.322;2023-09-30T03:14:47;100965.25;;;11.34;100.00
64521;BME280;50896;46.714;17.322;2023-09-30T03:17:14;100967.53;;;11.47;100.00
64521;BME280;50896;46.714;17.322;2023-09-30T03:19:41;100965.00;;;11.45;100.00
64521;BME280;50896;46.714;17.322;2023-09-30T03:22:08;100967.66;;;11.45;100.00
64521;BME280;50896;46.714;17.322;2023-09-30T03:24:39;100967.66;;;11.45;100.00
64521;BME280;50896;46.714;17.322;2023-09-30T03:27:07;100958.19;;;11.43;100.00
64521;BME280;50896;46.714;17.322;2023-09-30T03:29:36;100960.22;;;11.31;100.00
64521;BME280;50896;46.714;17.322;2023-09-30T03:32:04;100965.41;;;11.15;100.00
64521;BME280;50896;46.714;17.322;2023-09-30T03:34:31;100970.53;;;11.08;100.00
64521;BME280;50896;46.714;17.322;2023-09-30T03:36:58;100975.31;;;11.04;100.00
64521;BME280;50896;46.714;17.322;2023-09-30T03:39:25;100967.63;;;11.19;100.00
64521;BME280;50896;46.714;17.322;2023-09-30T03:41:55;100971.50;;;11.25;100.00
64521;BME280;50896;46.714;17.322;2023-09-30T03:44:22;100966.03;;;11.26;100.00
64521;BME280;50896;46.714;17.322;2023-09-30T03:46:51;100965.09;;;11.36;100.00
64521;BME280;50896;46.714;17.322;2023-09-30T03:49:19;100969.97;;;11.40;100.00
64521;BME280;50896;46.714;17.322;2023-09-30T03:51:48;100972.63;;;11.40;100.00
64521;BME280;50896;46.714;17.322;2023-09-30T03:54:17;100963.13;;;11.38;100.00
64521;BME280;50896;46.714;17.322;2023-09-30T03:56:45;100967.66;;;11.45;100.00
64521;BME280;50896;46.714;17.322;2023-09-30T03:59:13;100977.56;;;11.53;100.00
64521;BME280;50896;46.714;17.322;2023-09-30T04:01:40;100973.69;;;11.48;100.00
64521;BME280;50896;46.714;17.322;2023-09-30T04:04:07;100977.97;;;11.40;100.00
64521;BME280;50896;46.714;17.322;2023-09-30T04:06:37;100988.38;;;11.34;100.00
64521;BME280;50896;46.714;17.322;2023-09-30T04:09:07;100983.22;;;11.32;100.00
64521;BME280;50896;46.714;17.322;2023-09-30T04:11:37;100979.34;;;11.26;100.00
64521;BME280;50896;46.714;17.322;2023-09-30T04:14:05;100978.78;;;11.23;100.00
64521;BME280;50896;46.714;17.322;2023-09-30T04:16:33;100982.44;;;11.22;100.00
64521;BME280;50896;46.714;17.322;2023-09-30T04:19:01;100991.75;;;11.18;100.00
64521;BME280;50896;46.714;17.322;2023-09-30T04:21:28;100986.94;;;11.21;100.00
64521;BME280;50896;46.714;17.322;2023-09-30T04:23:56;100985.41;;;11.19;100.00
64521;BME280;50896;46.714;17.322;2023-09-30T04:26:24;100986.94;;;11.21;100.00
64521;BME280;50896;46.714;17.322;2023-09-30T04:28:52;100976.28;;;11.21;100.00
64521;BME280;50896;46.714;17.322;2023-09-30T04:31:20;100975.69;;;11.27;100.00
64521;BME280;50896;46.714;17.322;2023-09-30T04:33:51;100974.53;;;11.30;100.00
64521;BME280;50896;46.714;17.322;2023-09-30T04:36:18;100972.66;;;11.22;100.00
64521;BME280;50896;46.714;17.322;2023-09-30T04:38:46;100976.91;;;11.15;100.00
64521;BME280;50896;46.714;17.322;2023-09-30T04:41:13;100981.03;;;11.09;100.00
64521;BME280;50896;46.714;17.322;2023-09-30T04:43:39;100975.91;;;11.16;100.00
64521;BME280;50896;46.714;17.322;2023-09-30T04:46:06;100981.69;;;11.29;100.00
64521;BME280;50896;46.714;17.322;2023-09-30T04:48:40;100982.91;;;11.35;100.00
64521;BME280;50896;46.714;17.322;2023-09-30T04:51:08;100983.06;;;11.34;100.00
64521;BME280;50896;46.714;17.322;2023-09-30T04:53:36;100981.91;;;11.36;100.00
64521;BME280;50896;46.714;17.322;2023-09-30T04:56:04;100981.06;;;11.36;100.00
64521;BME280;50896;46.714;17.322;2023-09-30T04:58:31;100985.94;;;11.40;100.00
64521;BME280;50896;46.714;17.322;2023-09-30T05:00:58;100990.13;;;11.43;100.00
64521;BME280;50896;46.714;17.322;2023-09-30T05:03:25;100980.16;;;11.45;100.00
64521;BME280;50896;46.714;17.322;2023-09-30T05:05:53;101000.84;;;11.51;100.00
64521;BME280;50896;46.714;17.322;2023-09-30T05:08:24;100998.53;;;11.56;100.00
64521;BME280;50896;46.714;17.322;2023-09-30T05:10:51;100999.44;;;11.65;100.00
64521;BME280;50896;46.714;17.322;2023-09-30T05:13:22;101006.50;;;11.74;100.00
64521;BME280;50896;46.714;17.322;2023-09-30T05:15:52;101015.38;;;11.83;100.00
64521;BME280;50896;46.714;17.322;2023-09-30T05:18:20;101017.28;;;11.91;100.00
64521;BME280;50896;46.714;17.322;2023-09-30T05:20:47;101031.00;;;11.96;100.00
64521;BME280;50896;46.714;17.322;2023-09-30T05:23:17;101025.25;;;12.09;100.00
64521;BME280;50896;46.714;17.322;2023-09-30T05:25:45;101029.94;;;12.15;100.00
64521;BME280;50896;46.714;17.322;2023-09-30T05:28:12;101031.63;;;12.16;100.00
64521;BME280;50896;46.714;17.322;2023-09-30T05:30:40;101034.97;;;12.18;100.00
64521;BME280;50896;46.714;17.322;2023-09-30T05:33:07;101038.97;;;12.22;100.00
64521;BME280;50896;46.714;17.322;2023-09-30T05:35:34;101042.88;;;12.28;100.00
64521;BME280;50896;46.714;17.322;2023-09-30T05:38:01;101041.53;;;12.32;100.00
64521;BME280;50896;46.714;17.322;2023-09-30T05:40:29;101046.88;;;12.32;100.00
64521;BME280;50896;46.714;17.322;2023-09-30T05:42:58;101052.56;;;12.37;100.00
64521;BME280;50896;46.714;17.322;2023-09-30T05:45:27;101048.75;;;12.40;100.00
64521;BME280;50896;46.714;17.322;2023-09-30T05:47:55;101054.75;;;12.42;100.00
64521;BME280;50896;46.714;17.322;2023-09-30T05:50:23;101057.78;;;12.47;100.00
64521;BME280;50896;46.714;17.322;2023-09-30T05:52:55;101062.66;;;12.52;100.00
64521;BME280;50896;46.714;17.322;2023-09-30T05:55:23;101056.69;;;12.58;100.00
64521;BME280;50896;46.714;17.322;2023-09-30T05:57:52;101053.84;;;12.59;100.00
64521;BME280;50896;46.714;17.322;2023-09-30T06:00:21;101069.06;;;12.67;100.00
64521;BME280;50896;46.714;17.322;2023-09-30T06:02:58;101064.41;;;12.69;100.00
64521;BME280;50896;46.714;17.322;2023-09-30T06:05:26;101078.72;;;12.68;100.00
64521;BME280;50896;46.714;17.322;2023-09-30T06:07:56;101081.38;;;12.68;100.00
64521;BME280;50896;46.714;17.322;2023-09-30T06:10:23;101090.94;;;12.79;100.00
64521;BME280;50896;46.714;17.322;2023-09-30T06:12:53;101102.09;;;12.74;100.00
64521;BME280;50896;46.714;17.322;2023-09-30T06:15:24;101099.75;;;12.71;100.00
64521;BME280;50896;46.714;17.322;2023-09-30T06:17:56;101091.75;;;12.71;100.00
64521;BME280;50896;46.714;17.322;2023-09-30T06:20:23;101095.59;;;12.69;100.00
64521;BME280;50896;46.714;17.322;2023-09-30T06:22:54;101101.41;;;12.72;100.00
64521;BME280;50896;46.714;17.322;2023-09-30T06:25:21;101109.41;;;12.72;100.00
64521;BME280;50896;46.714;17.322;2023-09-30T06:27:50;101102.09;;;12.74;100.00
64521;BME280;50896;46.714;17.322;2023-09-30T06:30:19;101109.94;;;12.76;100.00
64521;BME280;50896;46.714;17.322;2023-09-30T06:32:49;101111.97;;;12.82;100.00
64521;BME280;50896;46.714;17.322;2023-09-30T06:35:16;101103.53;;;12.95;100.00
64521;BME280;50896;46.714;17.322;2023-09-30T06:37:45;101106.91;;;13.05;100.00
64521;BME280;50896;46.714;17.322;2023-09-30T06:40:12;101101.41;;;13.15;100.00
64521;BME280;50896;46.714;17.322;2023-09-30T06:42:40;101109.81;;;13.28;100.00
64521;BME280;50896;46.714;17.322;2023-09-30T06:45:08;101110.03;;;13.43;100.00
64521;BME280;50896;46.714;17.322;2023-09-30T06:47:38;101100.69;;;13.47;100.00
64521;BME280;50896;46.714;17.322;2023-09-30T06:50:09;101112.38;;;13.55;100.00
64521;BME280;50896;46.714;17.322;2023-09-30T06:52:39;101123.91;;;13.55;100.00
64521;BME280;50896;46.714;17.322;2023-09-30T06:55:08;101123.59;;;13.58;100.00
64521;BME280;50896;46.714;17.322;2023-09-30T06:57:36;101139.13;;;13.71;100.00
64521;BME280;50896;46.714;17.322;2023-09-30T07:00:11;101138.97;;;13.81;100.00
64521;BME280;50896;46.714;17.322;2023-09-30T07:02:40;101137.13;;;14.06;100.00
64521;BME280;50896;46.714;17.322;2023-09-30T07:05:11;101125.91;;;14.19;100.00
64521;BME280;50896;46.714;17.322;2023-09-30T07:07:40;101123.56;;;14.41;100.00
64521;BME280;50896;46.714;17.322;2023-09-30T07:10:10;101124.03;;;14.69;100.00
64521;BME280;50896;46.714;17.322;2023-09-30T07:12:37;101118.41;;;14.95;100.00
64521;BME280;50896;46.714;17.322;2023-09-30T07:15:05;101129.97;;;15.27;100.00
64521;BME280;50896;46.714;17.322;2023-09-30T07:17:32;101120.75;;;15.53;100.00
64521;BME280;50896;46.714;17.322;2023-09-30T07:20:01;101133.84;;;15.56;100.00
64521;BME280;50896;46.714;17.322;2023-09-30T07:22:29;101131.34;;;15.54;100.00
64521;BME280;50896;46.714;17.322;2023-09-30T07:24:59;101134.84;;;15.55;100.00
64521;BME280;50896;46.714;17.322;2023-09-30T07:27:25;101128.28;;;15.58;100.00
64521;BME280;50896;46.714;17.322;2023-09-30T07:29:54;101134.47;;;15.58;100.00
64521;BME280;50896;46.714;17.322;2023-09-30T07:32:21;101140.16;;;15.63;100.00
64521;BME280;50896;46.714;17.322;2023-09-30T07:34:51;101149.78;;;15.72;100.00
64521;BME280;50896;46.714;17.322;2023-09-30T07:37:18;101144.91;;;15.76;100.00
64521;BME280;50896;46.714;17.322;2023-09-30T07:39:47;101145.72;;;15.77;100.00
64521;BME280;50896;46.714;17.322;2023-09-30T07:42:14;101144.28;;;15.74;100.00
64521;BME280;50896;46.714;17.322;2023-09-30T07:44:41;101145.72;;;15.77;100.00
64521;BME280;50896;46.714;17.322;2023-09-30T07:47:08;101146.06;;;15.82;100.00
64521;BME280;50896;46.714;17.322;2023-09-30T07:49:38;101154.41;;;15.87;100.00
64521;BME280;50896;46.714;17.322;2023-09-30T07:52:05;101157.25;;;16.09;100.00
64521;BME280;50896;46.714;17.322;2023-09-30T07:54:32;101143.25;;;16.36;100.00
64521;BME280;50896;46.714;17.322;2023-09-30T07:56:59;101144.84;;;16.75;100.00
64521;BME280;50896;46.714;17.322;2023-09-30T07:59:26;101145.41;;;17.16;100.00
64521;BME280;50896;46.714;17.322;2023-09-30T08:01:53;101149.78;;;17.53;100.00
64521;BME280;50896;46.714;17.322;2023-09-30T08:04:21;101151.22;;;17.92;100.00
64521;BME280;50896;46.714;17.322;2023-09-30T08:06:49;101149.06;;;18.31;100.00
64521;BME280;50896;46.714;17.322;2023-09-30T08:09:16;101146.59;;;18.65;100.00
64521;BME280;50896;46.714;17.322;2023-09-30T08:11:45;101145.41;;;18.74;100.00
64521;BME280;50896;46.714;17.322;2023-09-30T08:14:12;101152.59;;;18.67;100.00
64521;BME280;50896;46.714;17.322;2023-09-30T08:16:39;101144.72;;;18.65;100.00
64521;BME280;50896;46.714;17.322;2023-09-30T08:19:06;101154.22;;;18.61;100.00
64521;BME280;50896;46.714;17.322;2023-09-30T08:21:33;101154.63;;;18.58;100.00
64521;BME280;50896;46.714;17.322;2023-09-30T08:24:02;101150.53;;;18.62;100.00
64521;BME280;50896;46.714;17.322;2023-09-30T08:26:29;101150.91;;;18.59;100.00
64521;BME280;50896;46.714;17.322;2023-09-30T08:28:55;101156.31;;;18.59;100.00
64521;BME280;50896;46.714;17.322;2023-09-30T08:31:22;101153.16;;;18.55;100.00
64521;BME280;50896;46.714;17.322;2023-09-30T08:33:50;101155.03;;;18.55;100.00
64521;BME280;50896;46.714;17.322;2023-09-30T08:36:17;101145.69;;;18.51;100.00
64521;BME280;50896;46.714;17.322;2023-09-30T08:38:45;101159.34;;;18.49;100.00
64521;BME280;50896;46.714;17.322;2023-09-30T08:41:26;101154.16;;;18.48;100.00
64521;BME280;50896;46.714;17.322;2023-09-30T08:43:59;101150.81;;;18.45;100.00
64521;BME280;50896;46.714;17.322;2023-09-30T08:46:31;101158.47;;;18.42;100.00
64521;BME280;50896;46.714;17.322;2023-09-30T08:49:03;101153.47;;;18.39;100.00
64521;BME280;50896;46.714;17.322;2023-09-30T08:51:31;101149.81;;;18.47;100.00
64521;BME280;50896;46.714;17.322;2023-09-30T08:53:59;101149.66;;;18.55;100.00
64521;BME280;50896;46.714;17.322;2023-09-30T08:56:30;101160.13;;;18.71;100.00
64521;BME280;50896;46.714;17.322;2023-09-30T08:59:01;101168.66;;;18.82;100.00
64521;BME280;50896;46.714;17.322;2023-09-30T09:01:29;101165.19;;;18.88;100.00
64521;BME280;50896;46.714;17.322;2023-09-30T09:03:56;101165.28;;;19.01;100.00
64521;BME280;50896;46.714;17.322;2023-09-30T09:06:25;101156.97;;;19.03;100.00
64521;BME280;50896;46.714;17.322;2023-09-30T09:08:52;101158.41;;;18.99;100.00
64521;BME280;50896;46.714;17.322;2023-09-30T09:11:20;101153.88;;;18.99;100.00
64521;BME280;50896;46.714;17.322;2023-09-30T09:13:53;101155.09;;;18.97;100.00
64521;BME280;50896;46.714;17.322;2023-09-30T09:16:24;101160.44;;;18.90;100.00
64521;BME280;50896;46.714;17.322;2023-09-30T09:18:52;101158.69;;;19.10;100.00
64521;BME280;50896;46.714;17.322;2023-09-30T09:21:21;101168.41;;;19.05;100.00
64521;BME280;50896;46.714;17.322;2023-09-30T09:23:51;101154.50;;;19.01;100.00
64521;BME280;50896;46.714;17.322;2023-09-30T09:26:30;101151.22;;;19.12;100.00
64521;BME280;50896;46.714;17.322;2023-09-30T09:29:03;101156.50;;;19.41;100.00
64521;BME280;50896;46.714;17.322;2023-09-30T09:31:35;101153.44;;;19.57;100.00
64521;BME280;50896;46.714;17.322;2023-09-30T09:34:03;101155.94;;;19.66;100.00
64521;BME280;50896;46.714;17.322;2023-09-30T09:36:41;101153.94;;;19.81;100.00
64521;BME280;50896;46.714;17.322;2023-09-30T09:39:09;101150.22;;;19.95;100.00
64521;BME280;50896;46.714;17.322;2023-09-30T09:41:50;101147.72;;;20.07;100.00
64521;BME280;50896;46.714;17.322;2023-09-30T09:44:21;101150.22;;;20.15;100.00
64521;BME280;50896;46.714;17.322;2023-09-30T09:46:49;101147.09;;;20.25;100.00
64521;BME280;50896;46.714;17.322;2023-09-30T09:49:18;101154.97;;;20.27;100.00
64521;BME280;50896;46.714;17.322;2023-09-30T09:51:48;101148.75;;;20.33;100.00
64521;BME280;50896;46.714;17.322;2023-09-30T09:54:16;101149.59;;;20.40;100.00
64521;BME280;50896;46.714;17.322;2023-09-30T09:56:46;101152.50;;;20.39;100.00
64521;BME280;50896;46.714;17.322;2023-09-30T09:59:14;101151.44;;;20.46;100.00
64521;BME280;50896;46.714;17.322;2023-09-30T10:01:41;101144.78;;;20.56;100.00
64521;BME280;50896;46.714;17.322;2023-09-30T10:04:12;101147.66;;;20.61;100.00
64521;BME280;50896;46.714;17.322;2023-09-30T10:06:44;101137.91;;;20.73;100.00
64521;BME280;50896;46.714;17.322;2023-09-30T10:09:16;101136.00;;;20.80;100.00
64521;BME280;50896;46.714;17.322;2023-09-30T10:11:44;101135.38;;;20.92;100.00
64521;BME280;50896;46.714;17.322;2023-09-30T10:14:32;101139.66;;;21.06;100.00
64521;BME280;50896;46.714;17.322;2023-09-30T10:17:00;101129.00;;;21.18;100.00
64521;BME280;50896;46.714;17.322;2023-09-30T10:19:28;101127.50;;;21.29;100.00
64521;BME280;50896;46.714;17.322;2023-09-30T10:24:58;101131.03;;;21.68;100.00
64521;BME280;50896;46.714;17.322;2023-09-30T10:30:09;101120.00;;;21.95;100.00
64521;BME280;50896;46.714;17.322;2023-09-30T10:40:49;101111.56;;;22.35;100.00
64521;BME280;50896;46.714;17.322;2023-09-30T10:43:37;101112.25;;;22.67;100.00
64521;BME280;50896;46.714;17.322;2023-09-30T10:48:53;101103.59;;;22.96;100.00
64521;BME280;50896;46.714;17.322;2023-09-30T10:51:21;101110.63;;;22.97;100.00
64521;BME280;50896;46.714;17.322;2023-09-30T10:53:53;101103.69;;;23.01;100.00
64521;BME280;50896;46.714;17.322;2023-09-30T10:56:26;101099.03;;;23.08;100.00
64521;BME280;50896;46.714;17.322;2023-09-30T10:58:58;101101.22;;;22.99;100.00
64521;BME280;50896;46.714;17.322;2023-09-30T11:01:32;101102.47;;;22.85;100.00
64521;BME280;50896;46.714;17.322;2023-09-30T11:04:02;101093.97;;;22.63;100.00
64521;BME280;50896;46.714;17.322;2023-09-30T11:06:32;101089.75;;;22.48;100.00
64521;BME280;50896;46.714;17.322;2023-09-30T11:09:00;101087.56;;;22.39;100.00
64521;BME280;50896;46.714;17.322;2023-09-30T11:11:42;101084.06;;;22.31;100.00
64521;BME280;50896;46.714;17.322;2023-09-30T11:16:43;101091.41;;;22.24;100.00
64521;BME280;50896;46.714;17.322;2023-09-30T11:19:11;101096.75;;;22.12;100.00
64521;BME280;50896;46.714;17.322;2023-09-30T11:21:39;101094.50;;;22.09;100.00
64521;BME280;50896;46.714;17.322;2023-09-30T11:24:07;101093.72;;;22.02;100.00
64521;BME280;50896;46.714;17.322;2023-09-30T11:26:34;101088.94;;;21.97;100.00
64521;BME280;50896;46.714;17.322;2023-09-30T11:29:10;101090.44;;;21.93;100.00
64521;BME280;50896;46.714;17.322;2023-09-30T11:31:39;101083.00;;;21.89;100.00
64521;BME280;50896;46.714;17.322;2023-09-30T11:34:07;101093.81;;;21.89;100.00
64521;BME280;50896;46.714;17.322;2023-09-30T11:36:39;101091.63;;;21.79;100.00
64521;BME280;50896;46.714;17.322;2023-09-30T11:39:09;101089.41;;;21.69;100.00
64521;BME280;50896;46.714;17.322;2023-09-30T11:41:39;101091.06;;;21.70;100.00
64521;BME280;50896;46.714;17.322;2023-09-30T11:44:11;101088.84;;;21.60;100.00
64521;BME280;50896;46.714;17.322;2023-09-30T11:47:02;101089.72;;;21.54;100.00
64521;BME280;50896;46.714;17.322;2023-09-30T11:49:35;101092.00;;;21.50;100.00
64521;BME280;50896;46.714;17.322;2023-09-30T11:52:08;101087.63;;;21.49;100.00
64521;BME280;50896;46.714;17.322;2023-09-30T11:54:41;101100.34;;;21.49;100.00
64521;BME280;50896;46.714;17.322;2023-09-30T11:57:11;101095.78;;;21.43;100.00
64521;BME280;50896;46.714;17.322;2023-09-30T11:59:38;101089.56;;;21.42;100.00
64521;BME280;50896;46.714;17.322;2023-09-30T12:02:11;101095.81;;;21.36;100.00
64521;BME280;50896;46.714;17.322;2023-09-30T12:04:42;101095.00;;;21.36;100.00
64521;BME280;50896;46.714;17.322;2023-09-30T12:07:10;101092.53;;;21.34;100.00
64521;BME280;50896;46.714;17.322;2023-09-30T12:09:37;101089.63;;;21.29;100.00
64521;BME280;50896;46.714;17.322;2023-09-30T12:12:07;101081.75;;;21.27;100.00
64521;BME280;50896;46.714;17.322;2023-09-30T12:14:39;101089.63;;;21.29;100.00
64521;BME280;50896;46.714;17.322;2023-09-30T12:17:06;101082.53;;;21.34;100.00
64521;BME280;50896;46.714;17.322;2023-09-30T12:19:38;101083.56;;;21.33;100.00
64521;BME280;50896;46.714;17.322;2023-09-30T12:22:05;101071.72;;;21.34;100.00
64521;BME280;50896;46.714;17.322;2023-09-30T12:24:33;101077.31;;;21.40;100.00
64521;BME280;50896;46.714;17.322;2023-09-30T12:27:00;101079.13;;;21.46;100.00
64521;BME280;50896;46.714;17.322;2023-09-30T12:29:27;101072.00;;;21.51;100.00
64521;BME280;50896;46.714;17.322;2023-09-30T12:31:53;101070.56;;;21.56;100.00
64521;BME280;50896;46.714;17.322;2023-09-30T12:34:22;101074.91;;;21.57;100.00
64521;BME280;50896;46.714;17.322;2023-09-30T12:36:54;101072.53;;;21.67;100.00
64521;BME280;50896;46.714;17.322;2023-09-30T12:39:24;101078.59;;;21.69;100.00
64521;BME280;50896;46.714;17.322;2023-09-30T12:41:53;101068.44;;;21.64;100.00
64521;BME280;50896;46.714;17.322;2023-09-30T12:44:20;101067.75;;;21.69;100.00
64521;BME280;50896;46.714;17.322;2023-09-30T12:46:47;101071.13;;;21.64;100.00
64521;BME280;50896;46.714;17.322;2023-09-30T12:49:14;101064.09;;;21.57;100.00
64521;BME280;50896;46.714;17.322;2023-09-30T12:51:42;101057.88;;;21.49;100.00
64521;BME280;50896;46.714;17.322;2023-09-30T12:54:09;101050.44;;;21.45;100.00
64521;BME280;50896;46.714;17.322;2023-09-30T12:56:37;101050.84;;;21.42;100.00